sensor_id;sensor_type;location;lat;lon;timestamp;P1;durP1;ratioP1;P2;durP2;ratioP2
20828;SDS011;10575;50.124;8.582;2022-11-21T00:00:41;7.13;;;2.30;;
20828;SDS011;10575;50.124;8.582;2022-11-21T00:03:08;9.32;;;2.08;;
20828;SDS011;10575;50.124;8.582;2022-11-21T00:05:37;7.25;;;1.90;;
20828;SDS011;10575;50.124;8.582;2022-11-21T00:08:06;8.05;;;2.05;;
20828;SDS011;10575;50.124;8.582;2022-11-21T00:10:32;5.95;;;2.03;;
20828;SDS011;10575;50.124;8.582;2022-11-21T00:12:59;10.40;;;1.73;;
20828;SDS011;10575;50.124;8.582;2022-11-21T00:15:25;5.25;;;1.38;;
20828;SDS011;10575;50.124;8.582;2022-11-21T00:17:51;4.45;;;1.52;;
20828;SDS011;10575;50.124;8.582;2022-11-21T00:20:17;3.50;;;1.60;;
20828;SDS011;10575;50.124;8.582;2022-11-21T00:22:44;3.75;;;1.70;;
20828;SDS011;10575;50.124;8.582;2022-11-21T00:25:09;4.60;;;1.33;;
20828;SDS011;10575;50.124;8.582;2022-11-21T00:27:35;3.67;;;1.50;;
20828;SDS011;10575;50.124;8.582;2022-11-21T00:30:01;4.70;;;1.10;;
20828;SDS011;10575;50.124;8.582;2022-11-21T00:32:27;6.40;;;1.40;;
20828;SDS011;10575;50.124;8.582;2022-11-21T00:34:52;2.65;;;1.25;;
20828;SDS011;10575;50.124;8.582;2022-11-21T00:37:18;5.03;;;1.10;;
20828;SDS011;10575;50.124;8.582;2022-11-21T00:39:43;1.85;;;1.00;;
20828;SDS011;10575;50.124;8.582;2022-11-21T00:42:09;2.40;;;0.80;;
20828;SDS011;10575;50.124;8.582;2022-11-21T00:44:34;4.95;;;1.10;;
20828;SDS011;10575;50.124;8.582;2022-11-21T00:47:00;5.25;;;0.95;;
20828;SDS011;10575;50.124;8.582;2022-11-21T00:49:26;4.25;;;0.90;;
20828;SDS011;10575;50.124;8.582;2022-11-21T00:51:51;2.28;;;0.80;;
20828;SDS011;10575;50.124;8.582;2022-11-21T00:54:17;3.92;;;1.00;;
20828;SDS011;10575;50.124;8.582;2022-11-21T00:56:42;2.03;;;0.93;;
20828;SDS011;10575;50.124;8.582;2022-11-21T00:59:08;1.17;;;0.80;;
20828;SDS011;10575;50.124;8.582;2022-11-21T01:01:33;2.83;;;1.20;;
20828;SDS011;10575;50.124;8.582;2022-11-21T01:03:59;4.35;;;1.23;;
20828;SDS011;10575;50.124;8.582;2022-11-21T01:06:24;2.70;;;0.90;;
20828;SDS011;10575;50.124;8.582;2022-11-21T01:08:50;1.20;;;0.70;;
20828;SDS011;10575;50.124;8.582;2022-11-21T01:11:18;4.70;;;1.10;;
20828;SDS011;10575;50.124;8.582;2022-11-21T01:13:44;5.50;;;1.13;;
20828;SDS011;10575;50.124;8.582;2022-11-21T01:16:21;2.65;;;1.25;;
20828;SDS011;10575;50.124;8.582;2022-11-21T01:18:48;3.15;;;1.15;;
20828;SDS011;10575;50.124;8.582;2022-11-21T01:21:16;2.75;;;1.13;;
20828;SDS011;10575;50.124;8.582;2022-11-21T01:23:49;1.83;;;1.00;;
20828;SDS011;10575;50.124;8.582;2022-11-21T01:26:16;2.53;;;1.20;;
20828;SDS011;10575;50.124;8.582;2022-11-21T01:28:43;2.95;;;1.10;;
20828;SDS011;10575;50.124;8.582;2022-11-21T01:31:10;6.78;;;1.48;;
20828;SDS011;10575;50.124;8.582;2022-11-21T01:33:38;12.32;;;2.70;;
20828;SDS011;10575;50.124;8.582;2022-11-21T01:38:33;6.95;;;1.65;;
20828;SDS011;10575;50.124;8.582;2022-11-21T01:40:59;6.88;;;1.33;;
20828;SDS011;10575;50.124;8.582;2022-11-21T01:43:24;5.72;;;1.38;;
20828;SDS011;10575;50.124;8.582;2022-11-21T01:48:20;7.82;;;1.85;;
20828;SDS011;10575;50.124;8.582;2022-11-21T01:50:49;5.50;;;1.73;;
20828;SDS011;10575;50.124;8.582;2022-11-21T01:53:15;4.55;;;1.40;;
20828;SDS011;10575;50.124;8.582;2022-11-21T01:55:40;7.97;;;1.75;;
20828;SDS011;10575;50.124;8.582;2022-11-21T01:58:06;7.45;;;1.83;;
20828;SDS011;10575;50.124;8.582;2022-11-21T02:00:35;2.30;;;1.13;;
20828;SDS011;10575;50.124;8.582;2022-11-21T02:03:04;5.68;;;1.50;;
20828;SDS011;10575;50.124;8.582;2022-11-21T02:05:34;4.38;;;1.67;;
20828;SDS011;10575;50.124;8.582;2022-11-21T02:08:02;5.30;;;1.80;;
20828;SDS011;10575;50.124;8.582;2022-11-21T02:10:32;9.48;;;2.20;;
20828;SDS011;10575;50.124;8.582;2022-11-21T02:13:00;6.50;;;1.58;;
20828;SDS011;10575;50.124;8.582;2022-11-21T02:15:27;7.57;;;1.70;;
20828;SDS011;10575;50.124;8.582;2022-11-21T02:17:54;10.55;;;2.00;;
20828;SDS011;10575;50.124;8.582;2022-11-21T02:20:21;6.45;;;2.47;;
20828;SDS011;10575;50.124;8.582;2022-11-21T02:25:23;6.13;;;2.03;;
20828;SDS011;10575;50.124;8.582;2022-11-21T02:27:52;7.80;;;2.17;;
20828;SDS011;10575;50.124;8.582;2022-11-21T02:30:21;9.52;;;2.15;;
20828;SDS011;10575;50.124;8.582;2022-11-21T02:32:47;14.02;;;3.13;;
20828;SDS011;10575;50.124;8.582;2022-11-21T02:35:14;10.90;;;2.67;;
20828;SDS011;10575;50.124;8.582;2022-11-21T02:37:41;9.15;;;2.63;;
20828;SDS011;10575;50.124;8.582;2022-11-21T02:40:15;6.47;;;2.38;;
20828;SDS011;10575;50.124;8.582;2022-11-21T02:42:58;16.13;;;2.67;;
20828;SDS011;10575;50.124;8.582;2022-11-21T02:45:43;10.32;;;2.60;;
20828;SDS011;10575;50.124;8.582;2022-11-21T02:48:10;13.52;;;2.83;;
20828;SDS011;10575;50.124;8.582;2022-11-21T02:50:37;10.40;;;3.03;;
20828;SDS011;10575;50.124;8.582;2022-11-21T02:53:05;12.65;;;2.63;;
20828;SDS011;10575;50.124;8.582;2022-11-21T02:55:32;12.15;;;3.10;;
20828;SDS011;10575;50.124;8.582;2022-11-21T02:57:58;14.45;;;2.92;;
20828;SDS011;10575;50.124;8.582;2022-11-21T03:00:24;18.58;;;3.70;;
20828;SDS011;10575;50.124;8.582;2022-11-21T03:02:50;11.63;;;3.25;;
20828;SDS011;10575;50.124;8.582;2022-11-21T03:05:17;16.83;;;3.55;;
20828;SDS011;10575;50.124;8.582;2022-11-21T03:07:43;12.45;;;3.20;;
20828;SDS011;10575;50.124;8.582;2022-11-21T03:10:10;14.80;;;3.90;;
20828;SDS011;10575;50.124;8.582;2022-11-21T03:12:36;10.63;;;3.00;;
20828;SDS011;10575;50.124;8.582;2022-11-21T03:15:06;14.60;;;4.05;;
20828;SDS011;10575;50.124;8.582;2022-11-21T03:17:34;20.45;;;3.70;;
20828;SDS011;10575;50.124;8.582;2022-11-21T03:19:59;11.27;;;3.20;;
20828;SDS011;10575;50.124;8.582;2022-11-21T03:22:26;15.10;;;3.13;;
20828;SDS011;10575;50.124;8.582;2022-11-21T03:24:51;10.02;;;3.40;;
20828;SDS011;10575;50.124;8.582;2022-11-21T03:27:17;16.65;;;3.50;;
20828;SDS011;10575;50.124;8.582;2022-11-21T03:29:42;13.35;;;3.80;;
20828;SDS011;10575;50.124;8.582;2022-11-21T03:32:08;18.10;;;3.40;;
20828;SDS011;10575;50.124;8.582;2022-11-21T03:34:33;15.93;;;3.17;;
20828;SDS011;10575;50.124;8.582;2022-11-21T03:36:59;10.27;;;2.60;;
20828;SDS011;10575;50.124;8.582;2022-11-21T03:39:24;15.23;;;3.10;;
20828;SDS011;10575;50.124;8.582;2022-11-21T03:41:50;20.10;;;3.65;;
20828;SDS011;10575;50.124;8.582;2022-11-21T03:44:16;12.00;;;2.88;;
20828;SDS011;10575;50.124;8.582;2022-11-21T03:46:42;17.08;;;3.70;;
20828;SDS011;10575;50.124;8.582;2022-11-21T03:49:09;17.58;;;3.63;;
20828;SDS011;10575;50.124;8.582;2022-11-21T03:51:36;12.45;;;3.33;;
20828;SDS011;10575;50.124;8.582;2022-11-21T03:54:02;12.95;;;3.45;;
20828;SDS011;10575;50.124;8.582;2022-11-21T03:56:28;11.43;;;3.60;;
20828;SDS011;10575;50.124;8.582;2022-11-21T03:58:54;12.90;;;3.40;;
20828;SDS011;10575;50.124;8.582;2022-11-21T04:01:20;12.18;;;3.47;;
20828;SDS011;10575;50.124;8.582;2022-11-21T04:03:46;14.57;;;3.40;;
20828;SDS011;10575;50.124;8.582;2022-11-21T04:06:12;14.05;;;3.22;;
20828;SDS011;10575;50.124;8.582;2022-11-21T04:08:39;18.92;;;3.50;;
20828;SDS011;10575;50.124;8.582;2022-11-21T04:11:05;13.13;;;3.92;;
20828;SDS011;10575;50.124;8.582;2022-11-21T04:13:31;14.55;;;3.15;;
20828;SDS011;10575;50.124;8.582;2022-11-21T04:15:57;11.52;;;2.90;;
20828;SDS011;10575;50.124;8.582;2022-11-21T04:18:22;10.93;;;3.42;;
20828;SDS011;10575;50.124;8.582;2022-11-21T04:20:48;12.13;;;3.13;;
20828;SDS011;10575;50.124;8.582;2022-11-21T04:23:19;16.38;;;3.08;;
20828;SDS011;10575;50.124;8.582;2022-11-21T04:25:44;12.68;;;3.63;;
20828;SDS011;10575;50.124;8.582;2022-11-21T04:28:10;13.95;;;3.03;;
20828;SDS011;10575;50.124;8.582;2022-11-21T04:30:37;6.13;;;2.38;;
20828;SDS011;10575;50.124;8.582;2022-11-21T04:33:02;8.13;;;2.40;;
20828;SDS011;10575;50.124;8.582;2022-11-21T04:35:28;8.45;;;2.47;;
20828;SDS011;10575;50.124;8.582;2022-11-21T04:37:53;11.07;;;2.60;;
20828;SDS011;10575;50.124;8.582;2022-11-21T04:40:19;6.68;;;2.88;;
20828;SDS011;10575;50.124;8.582;2022-11-21T04:42:45;7.60;;;2.40;;
20828;SDS011;10575;50.124;8.582;2022-11-21T04:45:12;9.77;;;2.90;;
20828;SDS011;10575;50.124;8.582;2022-11-21T04:47:40;10.32;;;2.58;;
20828;SDS011;10575;50.124;8.582;2022-11-21T04:50:07;5.30;;;2.10;;
20828;SDS011;10575;50.124;8.582;2022-11-21T04:52:34;7.88;;;1.98;;
20828;SDS011;10575;50.124;8.582;2022-11-21T04:54:59;5.60;;;2.20;;
20828;SDS011;10575;50.124;8.582;2022-11-21T04:57:28;8.15;;;2.60;;
20828;SDS011;10575;50.124;8.582;2022-11-21T04:59:54;8.88;;;2.42;;
20828;SDS011;10575;50.124;8.582;2022-11-21T05:02:20;14.10;;;2.90;;
20828;SDS011;10575;50.124;8.582;2022-11-21T05:04:46;5.35;;;2.80;;
20828;SDS011;10575;50.124;8.582;2022-11-21T05:07:11;6.32;;;2.35;;
20828;SDS011;10575;50.124;8.582;2022-11-21T05:09:37;8.77;;;2.55;;
20828;SDS011;10575;50.124;8.582;2022-11-21T05:12:03;8.95;;;2.42;;
20828;SDS011;10575;50.124;8.582;2022-11-21T05:14:47;9.95;;;2.20;;
20828;SDS011;10575;50.124;8.582;2022-11-21T05:17:13;8.88;;;2.42;;
20828;SDS011;10575;50.124;8.582;2022-11-21T05:19:38;11.20;;;2.00;;
20828;SDS011;10575;50.124;8.582;2022-11-21T05:22:04;9.25;;;2.17;;
20828;SDS011;10575;50.124;8.582;2022-11-21T05:24:29;11.68;;;2.17;;
20828;SDS011;10575;50.124;8.582;2022-11-21T05:26:55;11.52;;;2.13;;
20828;SDS011;10575;50.124;8.582;2022-11-21T05:29:20;5.55;;;2.08;;
20828;SDS011;10575;50.124;8.582;2022-11-21T05:31:46;10.30;;;2.60;;
20828;SDS011;10575;50.124;8.582;2022-11-21T05:34:11;6.57;;;2.25;;
20828;SDS011;10575;50.124;8.582;2022-11-21T05:36:37;8.43;;;1.90;;
20828;SDS011;10575;50.124;8.582;2022-11-21T05:39:03;13.18;;;2.13;;
20828;SDS011;10575;50.124;8.582;2022-11-21T05:41:28;12.73;;;2.22;;
20828;SDS011;10575;50.124;8.582;2022-11-21T05:43:54;10.80;;;2.30;;
20828;SDS011;10575;50.124;8.582;2022-11-21T05:46:20;8.25;;;2.08;;
20828;SDS011;10575;50.124;8.582;2022-11-21T05:48:47;7.88;;;1.98;;
20828;SDS011;10575;50.124;8.582;2022-11-21T05:51:14;6.30;;;2.15;;
20828;SDS011;10575;50.124;8.582;2022-11-21T05:53:41;5.30;;;1.95;;
20828;SDS011;10575;50.124;8.582;2022-11-21T05:56:07;4.50;;;1.70;;
20828;SDS011;10575;50.124;8.582;2022-11-21T05:58:37;8.93;;;1.98;;
20828;SDS011;10575;50.124;8.582;2022-11-21T06:01:03;6.20;;;2.20;;
20828;SDS011;10575;50.124;8.582;2022-11-21T06:03:31;6.85;;;2.20;;
20828;SDS011;10575;50.124;8.582;2022-11-21T06:08:44;6.00;;;2.15;;
20828;SDS011;10575;50.124;8.582;2022-11-21T06:11:13;7.93;;;2.45;;
20828;SDS011;10575;50.124;8.582;2022-11-21T06:13:40;7.75;;;2.20;;
20828;SDS011;10575;50.124;8.582;2022-11-21T06:18:39;6.10;;;2.33;;
20828;SDS011;10575;50.124;8.582;2022-11-21T06:21:25;7.43;;;2.30;;
20828;SDS011;10575;50.124;8.582;2022-11-21T06:23:53;7.43;;;2.35;;
20828;SDS011;10575;50.124;8.582;2022-11-21T06:26:20;6.47;;;2.30;;
20828;SDS011;10575;50.124;8.582;2022-11-21T06:28:51;6.03;;;2.10;;
20828;SDS011;10575;50.124;8.582;2022-11-21T06:31:18;6.25;;;2.33;;
20828;SDS011;10575;50.124;8.582;2022-11-21T06:33:46;7.75;;;2.38;;
20828;SDS011;10575;50.124;8.582;2022-11-21T06:36:15;5.18;;;2.60;;
20828;SDS011;10575;50.124;8.582;2022-11-21T06:38:42;7.88;;;3.83;;
20828;SDS011;10575;50.124;8.582;2022-11-21T06:41:12;6.13;;;4.32;;
20828;SDS011;10575;50.124;8.582;2022-11-21T06:43:39;10.43;;;3.45;;
20828;SDS011;10575;50.124;8.582;2022-11-21T06:46:05;8.98;;;3.33;;
20828;SDS011;10575;50.124;8.582;2022-11-21T06:48:31;7.57;;;2.80;;
20828;SDS011;10575;50.124;8.582;2022-11-21T06:50:57;9.55;;;3.50;;
20828;SDS011;10575;50.124;8.582;2022-11-21T06:53:35;8.90;;;3.40;;
20828;SDS011;10575;50.124;8.582;2022-11-21T06:56:00;8.02;;;2.85;;
20828;SDS011;10575;50.124;8.582;2022-11-21T06:58:26;11.07;;;2.92;;
20828;SDS011;10575;50.124;8.582;2022-11-21T07:00:53;8.30;;;2.90;;
20828;SDS011;10575;50.124;8.582;2022-11-21T07:03:19;10.50;;;2.92;;
20828;SDS011;10575;50.124;8.582;2022-11-21T07:05:46;7.57;;;2.70;;
20828;SDS011;10575;50.124;8.582;2022-11-21T07:08:11;8.40;;;2.72;;
20828;SDS011;10575;50.124;8.582;2022-11-21T07:10:37;11.88;;;3.55;;
20828;SDS011;10575;50.124;8.582;2022-11-21T07:13:02;9.57;;;2.58;;
20828;SDS011;10575;50.124;8.582;2022-11-21T07:15:47;9.20;;;3.10;;
20828;SDS011;10575;50.124;8.582;2022-11-21T07:18:14;8.25;;;2.78;;
20828;SDS011;10575;50.124;8.582;2022-11-21T07:20:39;7.00;;;2.85;;
20828;SDS011;10575;50.124;8.582;2022-11-21T07:23:05;5.57;;;2.78;;
20828;SDS011;10575;50.124;8.582;2022-11-21T07:25:32;7.57;;;2.92;;
20828;SDS011;10575;50.124;8.582;2022-11-21T07:27:58;6.38;;;2.63;;
20828;SDS011;10575;50.124;8.582;2022-11-21T07:30:27;10.25;;;2.90;;
20828;SDS011;10575;50.124;8.582;2022-11-21T07:32:54;7.47;;;3.00;;
20828;SDS011;10575;50.124;8.582;2022-11-21T07:35:20;7.63;;;2.80;;
20828;SDS011;10575;50.124;8.582;2022-11-21T07:37:46;8.93;;;2.97;;
20828;SDS011;10575;50.124;8.582;2022-11-21T07:40:11;7.88;;;2.60;;
20828;SDS011;10575;50.124;8.582;2022-11-21T07:42:37;6.72;;;2.72;;
20828;SDS011;10575;50.124;8.582;2022-11-21T07:45:03;8.82;;;3.03;;
20828;SDS011;10575;50.124;8.582;2022-11-21T07:47:29;14.88;;;3.13;;
20828;SDS011;10575;50.124;8.582;2022-11-21T07:49:54;7.72;;;2.78;;
20828;SDS011;10575;50.124;8.582;2022-11-21T07:52:20;8.32;;;3.03;;
20828;SDS011;10575;50.124;8.582;2022-11-21T07:54:45;6.32;;;2.50;;
20828;SDS011;10575;50.124;8.582;2022-11-21T07:57:11;7.03;;;2.70;;
20828;SDS011;10575;50.124;8.582;2022-11-21T07:59:36;10.40;;;3.10;;
20828;SDS011;10575;50.124;8.582;2022-11-21T08:02:02;10.40;;;2.88;;
20828;SDS011;10575;50.124;8.582;2022-11-21T08:04:28;8.02;;;2.50;;
20828;SDS011;10575;50.124;8.582;2022-11-21T08:06:53;7.85;;;2.90;;
20828;SDS011;10575;50.124;8.582;2022-11-21T08:09:19;10.25;;;3.55;;
20828;SDS011;10575;50.124;8.582;2022-11-21T08:11:44;9.80;;;2.78;;
20828;SDS011;10575;50.124;8.582;2022-11-21T08:14:10;7.75;;;2.97;;
20828;SDS011;10575;50.124;8.582;2022-11-21T08:16:36;8.48;;;4.07;;
20828;SDS011;10575;50.124;8.582;2022-11-21T08:19:01;3.97;;;2.78;;
20828;SDS011;10575;50.124;8.582;2022-11-21T08:21:27;7.13;;;2.70;;
20828;SDS011;10575;50.124;8.582;2022-11-21T08:23:53;9.82;;;3.22;;
20828;SDS011;10575;50.124;8.582;2022-11-21T08:26:19;5.47;;;2.50;;
20828;SDS011;10575;50.124;8.582;2022-11-21T08:28:44;4.57;;;2.20;;
20828;SDS011;10575;50.124;8.582;2022-11-21T08:31:10;6.47;;;2.22;;
20828;SDS011;10575;50.124;8.582;2022-11-21T08:33:36;6.13;;;2.25;;
20828;SDS011;10575;50.124;8.582;2022-11-21T08:36:02;4.32;;;2.17;;
20828;SDS011;10575;50.124;8.582;2022-11-21T08:38:29;4.57;;;2.20;;
20828;SDS011;10575;50.124;8.582;2022-11-21T08:40:54;8.80;;;2.88;;
20828;SDS011;10575;50.124;8.582;2022-11-21T08:43:38;3.72;;;2.30;;
20828;SDS011;10575;50.124;8.582;2022-11-21T08:46:04;6.45;;;2.50;;
20828;SDS011;10575;50.124;8.582;2022-11-21T08:48:29;11.80;;;2.40;;
20828;SDS011;10575;50.124;8.582;2022-11-21T08:50:58;6.60;;;2.50;;
20828;SDS011;10575;50.124;8.582;2022-11-21T08:53:24;5.57;;;2.20;;
20828;SDS011;10575;50.124;8.582;2022-11-21T08:55:50;8.00;;;2.80;;
20828;SDS011;10575;50.124;8.582;2022-11-21T08:58:15;4.35;;;2.38;;
20828;SDS011;10575;50.124;8.582;2022-11-21T09:00:41;9.55;;;2.45;;
20828;SDS011;10575;50.124;8.582;2022-11-21T09:03:06;5.90;;;2.33;;
20828;SDS011;10575;50.124;8.582;2022-11-21T09:05:32;6.80;;;2.40;;
20828;SDS011;10575;50.124;8.582;2022-11-21T09:07:58;7.05;;;2.70;;
20828;SDS011;10575;50.124;8.582;2022-11-21T09:10:24;8.52;;;2.78;;
20828;SDS011;10575;50.124;8.582;2022-11-21T09:12:51;6.82;;;2.20;;
20828;SDS011;10575;50.124;8.582;2022-11-21T09:15:16;7.07;;;2.70;;
20828;SDS011;10575;50.124;8.582;2022-11-21T09:18:01;5.70;;;3.03;;
20828;SDS011;10575;50.124;8.582;2022-11-21T09:20:28;4.25;;;2.10;;
20828;SDS011;10575;50.124;8.582;2022-11-21T09:23:06;5.68;;;2.47;;
20828;SDS011;10575;50.124;8.582;2022-11-21T09:25:33;9.02;;;2.50;;
20828;SDS011;10575;50.124;8.582;2022-11-21T09:28:11;6.43;;;2.65;;
20828;SDS011;10575;50.124;8.582;2022-11-21T09:30:42;6.90;;;2.40;;
20828;SDS011;10575;50.124;8.582;2022-11-21T09:33:12;4.63;;;2.40;;
20828;SDS011;10575;50.124;8.582;2022-11-21T09:35:43;8.13;;;2.78;;
20828;SDS011;10575;50.124;8.582;2022-11-21T09:38:09;5.57;;;2.45;;
20828;SDS011;10575;50.124;8.582;2022-11-21T09:40:35;5.38;;;2.55;;
20828;SDS011;10575;50.124;8.582;2022-11-21T09:45:55;9.05;;;2.50;;
20828;SDS011;10575;50.124;8.582;2022-11-21T09:48:27;8.25;;;2.45;;
20828;SDS011;10575;50.124;8.582;2022-11-21T09:50:59;12.45;;;2.20;;
20828;SDS011;10575;50.124;8.582;2022-11-21T09:53:32;6.40;;;2.30;;
20828;SDS011;10575;50.124;8.582;2022-11-21T09:56:10;6.65;;;2.28;;
20828;SDS011;10575;50.124;8.582;2022-11-21T09:58:39;3.50;;;1.88;;
20828;SDS011;10575;50.124;8.582;2022-11-21T10:01:12;4.78;;;2.58;;
20828;SDS011;10575;50.124;8.582;2022-11-21T10:03:41;4.97;;;2.08;;
20828;SDS011;10575;50.124;8.582;2022-11-21T10:06:27;5.18;;;2.20;;
20828;SDS011;10575;50.124;8.582;2022-11-21T10:09:13;6.57;;;2.22;;
20828;SDS011;10575;50.124;8.582;2022-11-21T10:11:56;5.18;;;2.17;;
20828;SDS011;10575;50.124;8.582;2022-11-21T10:14:57;7.53;;;2.40;;
20828;SDS011;10575;50.124;8.582;2022-11-21T10:26:15;5.15;;;1.80;;
20828;SDS011;10575;50.124;8.582;2022-11-21T10:28:51;2.95;;;2.05;;
20828;SDS011;10575;50.124;8.582;2022-11-21T10:31:23;5.97;;;1.90;;
20828;SDS011;10575;50.124;8.582;2022-11-21T10:33:52;5.80;;;1.98;;
20828;SDS011;10575;50.124;8.582;2022-11-21T10:36:25;4.75;;;2.05;;
20828;SDS011;10575;50.124;8.582;2022-11-21T10:38:58;3.22;;;1.98;;
20828;SDS011;10575;50.124;8.582;2022-11-21T10:44:26;10.77;;;2.40;;
20828;SDS011;10575;50.124;8.582;2022-11-21T10:47:19;5.32;;;2.10;;
20828;SDS011;10575;50.124;8.582;2022-11-21T10:53:02;8.13;;;2.10;;
20828;SDS011;10575;50.124;8.582;2022-11-21T10:55:57;8.60;;;2.97;;
20828;SDS011;10575;50.124;8.582;2022-11-21T10:58:47;11.70;;;5.57;;
20828;SDS011;10575;50.124;8.582;2022-11-21T11:01:23;23.75;;;12.52;;
20828;SDS011;10575;50.124;8.582;2022-11-21T11:06:39;3.95;;;2.00;;
20828;SDS011;10575;50.124;8.582;2022-11-21T11:09:06;2.83;;;1.52;;
20828;SDS011;10575;50.124;8.582;2022-11-21T11:11:46;23.38;;;13.82;;
20828;SDS011;10575;50.124;8.582;2022-11-21T11:14:12;47.03;;;23.52;;
20828;SDS011;10575;50.124;8.582;2022-11-21T11:16:41;18.65;;;10.88;;
20828;SDS011;10575;50.124;8.582;2022-11-21T11:24:23;10.63;;;4.20;;
20828;SDS011;10575;50.124;8.582;2022-11-21T11:26:52;7.43;;;2.58;;
20828;SDS011;10575;50.124;8.582;2022-11-21T11:29:23;7.85;;;2.85;;
20828;SDS011;10575;50.124;8.582;2022-11-21T11:34:48;3.05;;;1.50;;
20828;SDS011;10575;50.124;8.582;2022-11-21T11:37:37;4.57;;;1.42;;
20828;SDS011;10575;50.124;8.582;2022-11-21T11:40:13;4.72;;;1.65;;
20828;SDS011;10575;50.124;8.582;2022-11-21T11:48:48;7.35;;;3.10;;
20828;SDS011;10575;50.124;8.582;2022-11-21T11:54:17;5.22;;;1.73;;
20828;SDS011;10575;50.124;8.582;2022-11-21T11:56:53;9.30;;;3.97;;
20828;SDS011;10575;50.124;8.582;2022-11-21T11:59:28;5.18;;;1.67;;
20828;SDS011;10575;50.124;8.582;2022-11-21T12:02:17;4.28;;;1.65;;
20828;SDS011;10575;50.124;8.582;2022-11-21T12:04:56;4.47;;;1.83;;
20828;SDS011;10575;50.124;8.582;2022-11-21T12:07:33;6.47;;;2.05;;
20828;SDS011;10575;50.124;8.582;2022-11-21T12:10:05;4.25;;;1.65;;
20828;SDS011;10575;50.124;8.582;2022-11-21T12:12:42;5.25;;;1.92;;
20828;SDS011;10575;50.124;8.582;2022-11-21T12:15:23;5.45;;;1.52;;
20828;SDS011;10575;50.124;8.582;2022-11-21T12:23:27;5.57;;;1.70;;
20828;SDS011;10575;50.124;8.582;2022-11-21T12:26:16;4.32;;;2.00;;
20828;SDS011;10575;50.124;8.582;2022-11-21T12:28:50;5.10;;;2.05;;
20828;SDS011;10575;50.124;8.582;2022-11-21T12:34:46;5.65;;;1.77;;
20828;SDS011;10575;50.124;8.582;2022-11-21T12:37:33;7.47;;;3.72;;
20828;SDS011;10575;50.124;8.582;2022-11-21T12:52:33;14.50;;;8.50;;
20828;SDS011;10575;50.124;8.582;2022-11-21T12:55:35;22.55;;;13.00;;
20828;SDS011;10575;50.124;8.582;2022-11-21T12:58:04;34.55;;;15.38;;
20828;SDS011;10575;50.124;8.582;2022-11-21T13:00:47;14.63;;;8.07;;
20828;SDS011;10575;50.124;8.582;2022-11-21T13:03:32;9.43;;;4.45;;
20828;SDS011;10575;50.124;8.582;2022-11-21T13:06:14;32.65;;;19.85;;
20828;SDS011;10575;50.124;8.582;2022-11-21T13:08:43;18.00;;;10.27;;
20828;SDS011;10575;50.124;8.582;2022-11-21T13:14:06;10.80;;;5.70;;
20828;SDS011;10575;50.124;8.582;2022-11-21T13:16:40;6.22;;;3.15;;
20828;SDS011;10575;50.124;8.582;2022-11-21T13:19:13;11.27;;;7.80;;
20828;SDS011;10575;50.124;8.582;2022-11-21T13:21:51;5.10;;;2.40;;
20828;SDS011;10575;50.124;8.582;2022-11-21T13:35:34;13.95;;;6.32;;
20828;SDS011;10575;50.124;8.582;2022-11-21T13:38:03;23.13;;;11.85;;
20828;SDS011;10575;50.124;8.582;2022-11-21T13:40:37;12.13;;;4.47;;
20828;SDS011;10575;50.124;8.582;2022-11-21T13:45:45;8.20;;;3.17;;
20828;SDS011;10575;50.124;8.582;2022-11-21T13:51:49;8.55;;;1.75;;
20828;SDS011;10575;50.124;8.582;2022-11-21T13:57:24;15.07;;;4.18;;
20828;SDS011;10575;50.124;8.582;2022-11-21T14:05:57;5.88;;;1.67;;
20828;SDS011;10575;50.124;8.582;2022-11-21T14:08:41;10.13;;;1.70;;
20828;SDS011;10575;50.124;8.582;2022-11-21T14:11:18;4.70;;;1.83;;
20828;SDS011;10575;50.124;8.582;2022-11-21T14:13:59;6.32;;;1.60;;
20828;SDS011;10575;50.124;8.582;2022-11-21T14:18:58;7.80;;;1.85;;
20828;SDS011;10575;50.124;8.582;2022-11-21T14:21:25;5.95;;;1.85;;
20828;SDS011;10575;50.124;8.582;2022-11-21T14:24:03;10.57;;;2.03;;
20828;SDS011;10575;50.124;8.582;2022-11-21T14:26:42;8.98;;;2.20;;
20828;SDS011;10575;50.124;8.582;2022-11-21T14:29:27;7.43;;;1.50;;
20828;SDS011;10575;50.124;8.582;2022-11-21T14:32:01;8.02;;;1.80;;
20828;SDS011;10575;50.124;8.582;2022-11-21T14:34:28;9.52;;;2.10;;
20828;SDS011;10575;50.124;8.582;2022-11-21T14:36:57;8.63;;;2.35;;
20828;SDS011;10575;50.124;8.582;2022-11-21T14:39:27;11.52;;;5.50;;
20828;SDS011;10575;50.124;8.582;2022-11-21T14:41:55;4.32;;;2.25;;
20828;SDS011;10575;50.124;8.582;2022-11-21T14:44:24;4.40;;;2.67;;
20828;SDS011;10575;50.124;8.582;2022-11-21T14:46:50;9.32;;;2.22;;
20828;SDS011;10575;50.124;8.582;2022-11-21T14:49:50;5.93;;;2.00;;
20828;SDS011;10575;50.124;8.582;2022-11-21T14:52:18;5.60;;;1.70;;
20828;SDS011;10575;50.124;8.582;2022-11-21T14:54:49;6.70;;;2.25;;
20828;SDS011;10575;50.124;8.582;2022-11-21T14:57:37;7.68;;;2.60;;
20828;SDS011;10575;50.124;8.582;2022-11-21T15:00:06;6.18;;;2.63;;
20828;SDS011;10575;50.124;8.582;2022-11-21T15:02:33;3.05;;;2.20;;
20828;SDS011;10575;50.124;8.582;2022-11-21T15:05:00;6.35;;;2.42;;
20828;SDS011;10575;50.124;8.582;2022-11-21T15:07:37;3.83;;;1.85;;
20828;SDS011;10575;50.124;8.582;2022-11-21T15:10:11;7.53;;;2.88;;
20828;SDS011;10575;50.124;8.582;2022-11-21T15:12:41;5.72;;;2.40;;
20828;SDS011;10575;50.124;8.582;2022-11-21T15:15:27;10.90;;;2.53;;
20828;SDS011;10575;50.124;8.582;2022-11-21T15:17:58;4.57;;;2.10;;
20828;SDS011;10575;50.124;8.582;2022-11-21T15:20:26;9.38;;;2.45;;
20828;SDS011;10575;50.124;8.582;2022-11-21T15:23:02;6.97;;;2.53;;
20828;SDS011;10575;50.124;8.582;2022-11-21T15:25:30;7.18;;;2.05;;
20828;SDS011;10575;50.124;8.582;2022-11-21T15:28:14;9.52;;;2.65;;
20828;SDS011;10575;50.124;8.582;2022-11-21T15:30:40;6.90;;;2.38;;
20828;SDS011;10575;50.124;8.582;2022-11-21T15:37:59;5.72;;;2.40;;
20828;SDS011;10575;50.124;8.582;2022-11-21T15:40:25;8.85;;;3.20;;
20828;SDS011;10575;50.124;8.582;2022-11-21T15:42:51;9.60;;;3.30;;
20828;SDS011;10575;50.124;8.582;2022-11-21T15:45:21;8.82;;;3.38;;
20828;SDS011;10575;50.124;8.582;2022-11-21T15:47:49;9.85;;;3.45;;
20828;SDS011;10575;50.124;8.582;2022-11-21T15:50:15;10.07;;;3.55;;
20828;SDS011;10575;50.124;8.582;2022-11-21T15:52:45;14.77;;;4.35;;
20828;SDS011;10575;50.124;8.582;2022-11-21T15:55:12;10.00;;;4.43;;
20828;SDS011;10575;50.124;8.582;2022-11-21T15:57:43;8.15;;;3.58;;
20828;SDS011;10575;50.124;8.582;2022-11-21T16:00:08;13.57;;;5.53;;
20828;SDS011;10575;50.124;8.582;2022-11-21T16:02:35;13.35;;;5.75;;
20828;SDS011;10575;50.124;8.582;2022-11-21T16:05:01;10.38;;;3.95;;
20828;SDS011;10575;50.124;8.582;2022-11-21T16:07:26;10.48;;;4.25;;
20828;SDS011;10575;50.124;8.582;2022-11-21T16:09:52;6.78;;;3.70;;
20828;SDS011;10575;50.124;8.582;2022-11-21T16:12:19;9.48;;;3.72;;
20828;SDS011;10575;50.124;8.582;2022-11-21T16:14:45;11.07;;;5.32;;
20828;SDS011;10575;50.124;8.582;2022-11-21T16:17:10;11.02;;;3.78;;
20828;SDS011;10575;50.124;8.582;2022-11-21T16:19:36;5.45;;;3.03;;
20828;SDS011;10575;50.124;8.582;2022-11-21T16:22:01;13.90;;;5.13;;
20828;SDS011;10575;50.124;8.582;2022-11-21T16:24:27;11.52;;;4.88;;
20828;SDS011;10575;50.124;8.582;2022-11-21T16:26:52;13.00;;;4.07;;
20828;SDS011;10575;50.124;8.582;2022-11-21T16:29:19;16.17;;;4.30;;
20828;SDS011;10575;50.124;8.582;2022-11-21T16:31:45;10.73;;;4.03;;
20828;SDS011;10575;50.124;8.582;2022-11-21T16:34:17;7.93;;;3.20;;
20828;SDS011;10575;50.124;8.582;2022-11-21T16:36:43;11.60;;;4.65;;
20828;SDS011;10575;50.124;8.582;2022-11-21T16:39:08;10.88;;;3.85;;
20828;SDS011;10575;50.124;8.582;2022-11-21T16:41:34;11.73;;;3.47;;
20828;SDS011;10575;50.124;8.582;2022-11-21T16:43:59;9.32;;;3.22;;